sensor_id;sensor_type;location;lat;lon;timestamp;P1;durP1;ratioP1;P2;durP2;ratioP2
70814;SDS011;58428;49.478;10.986;2022-11-20T00:01:15;21.23;;;9.68;;
70814;SDS011;58428;49.478;10.986;2022-11-20T00:03:43;19.90;;;9.82;;
70814;SDS011;58428;49.478;10.986;2022-11-20T00:06:10;23.67;;;10.32;;
70814;SDS011;58428;49.478;10.986;2022-11-20T00:08:38;21.13;;;9.73;;
70814;SDS011;58428;49.478;10.986;2022-11-20T00:11:04;21.98;;;10.52;;
70814;SDS011;58428;49.478;10.986;2022-11-20T00:13:32;20.33;;;9.75;;
70814;SDS011;58428;49.478;10.986;2022-11-20T00:16:00;21.55;;;10.77;;
70814;SDS011;58428;49.478;10.986;2022-11-20T00:18:27;22.23;;;10.68;;
70814;SDS011;58428;49.478;10.986;2022-11-20T00:20:59;24.58;;;10.68;;
70814;SDS011;58428;49.478;10.986;2022-11-20T00:23:29;22.50;;;10.55;;
70814;SDS011;58428;49.478;10.986;2022-11-20T00:25:54;20.10;;;9.50;;
70814;SDS011;58428;49.478;10.986;2022-11-20T00:28:20;22.83;;;10.80;;
70814;SDS011;58428;49.478;10.986;2022-11-20T00:30:45;20.92;;;9.60;;
70814;SDS011;58428;49.478;10.986;2022-11-20T00:33:13;22.43;;;10.00;;
70814;SDS011;58428;49.478;10.986;2022-11-20T00:35:42;21.75;;;9.57;;
70814;SDS011;58428;49.478;10.986;2022-11-20T00:38:07;23.17;;;10.85;;
70814;SDS011;58428;49.478;10.986;2022-11-20T00:40:33;22.63;;;10.13;;
70814;SDS011;58428;49.478;10.986;2022-11-20T00:42:58;25.10;;;10.27;;
70814;SDS011;58428;49.478;10.986;2022-11-20T00:45:25;24.42;;;10.63;;
70814;SDS011;58428;49.478;10.986;2022-11-20T00:47:50;24.40;;;10.85;;
70814;SDS011;58428;49.478;10.986;2022-11-20T00:50:16;22.70;;;10.77;;
70814;SDS011;58428;49.478;10.986;2022-11-20T00:52:41;22.98;;;11.07;;
70814;SDS011;58428;49.478;10.986;2022-11-20T00:55:06;23.80;;;10.35;;
70814;SDS011;58428;49.478;10.986;2022-11-20T00:57:32;19.67;;;9.43;;
70814;SDS011;58428;49.478;10.986;2022-11-20T00:59:58;22.23;;;10.52;;
70814;SDS011;58428;49.478;10.986;2022-11-20T01:02:24;22.85;;;9.90;;
70814;SDS011;58428;49.478;10.986;2022-11-20T01:04:49;22.83;;;10.25;;
70814;SDS011;58428;49.478;10.986;2022-11-20T01:07:14;22.67;;;10.68;;
70814;SDS011;58428;49.478;10.986;2022-11-20T01:09:41;23.25;;;9.88;;
70814;SDS011;58428;49.478;10.986;2022-11-20T01:12:07;21.77;;;10.60;;
70814;SDS011;58428;49.478;10.986;2022-11-20T01:14:32;22.75;;;10.15;;
70814;SDS011;58428;49.478;10.986;2022-11-20T01:16:57;25.73;;;11.20;;
70814;SDS011;58428;49.478;10.986;2022-11-20T01:19:23;26.23;;;10.60;;
70814;SDS011;58428;49.478;10.986;2022-11-20T01:21:51;24.42;;;11.13;;
70814;SDS011;58428;49.478;10.986;2022-11-20T01:24:19;25.50;;;11.88;;
70814;SDS011;58428;49.478;10.986;2022-11-20T01:26:46;24.75;;;11.38;;
70814;SDS011;58428;49.478;10.986;2022-11-20T01:29:15;23.33;;;10.48;;
70814;SDS011;58428;49.478;10.986;2022-11-20T01:31:43;23.33;;;10.93;;
70814;SDS011;58428;49.478;10.986;2022-11-20T01:34:10;26.35;;;11.70;;
70814;SDS011;58428;49.478;10.986;2022-11-20T01:36:39;26.15;;;12.10;;
70814;SDS011;58428;49.478;10.986;2022-11-20T01:39:07;24.02;;;11.68;;
70814;SDS011;58428;49.478;10.986;2022-11-20T01:41:40;26.20;;;11.13;;
70814;SDS011;58428;49.478;10.986;2022-11-20T01:47:25;26.15;;;12.38;;
70814;SDS011;58428;49.478;10.986;2022-11-20T01:50:17;26.25;;;12.13;;
70814;SDS011;58428;49.478;10.986;2022-11-20T01:55:53;27.17;;;11.02;;
70814;SDS011;58428;49.478;10.986;2022-11-20T01:58:26;28.40;;;12.45;;
70814;SDS011;58428;49.478;10.986;2022-11-20T02:00:55;29.75;;;12.27;;
70814;SDS011;58428;49.478;10.986;2022-11-20T02:03:20;33.30;;;13.77;;
70814;SDS011;58428;49.478;10.986;2022-11-20T02:08:37;32.35;;;13.77;;
70814;SDS011;58428;49.478;10.986;2022-11-20T02:11:03;31.25;;;14.20;;
70814;SDS011;58428;49.478;10.986;2022-11-20T02:13:29;29.65;;;12.57;;
70814;SDS011;58428;49.478;10.986;2022-11-20T02:18:57;31.48;;;12.18;;
70814;SDS011;58428;49.478;10.986;2022-11-20T02:26:35;27.95;;;12.38;;
70814;SDS011;58428;49.478;10.986;2022-11-20T02:29:28;24.25;;;11.23;;
70814;SDS011;58428;49.478;10.986;2022-11-20T02:31:59;27.45;;;11.98;;
70814;SDS011;58428;49.478;10.986;2022-11-20T02:34:27;24.52;;;10.52;;
70814;SDS011;58428;49.478;10.986;2022-11-20T02:36:53;24.40;;;10.88;;
70814;SDS011;58428;49.478;10.986;2022-11-20T02:39:21;24.50;;;10.90;;
70814;SDS011;58428;49.478;10.986;2022-11-20T02:41:49;27.70;;;11.73;;
70814;SDS011;58428;49.478;10.986;2022-11-20T02:44:17;27.40;;;11.60;;
70814;SDS011;58428;49.478;10.986;2022-11-20T02:46:43;25.13;;;10.93;;
70814;SDS011;58428;49.478;10.986;2022-11-20T02:49:11;23.25;;;10.50;;
70814;SDS011;58428;49.478;10.986;2022-11-20T02:51:36;24.83;;;11.52;;
70814;SDS011;58428;49.478;10.986;2022-11-20T02:54:02;28.33;;;13.15;;
70814;SDS011;58428;49.478;10.986;2022-11-20T02:56:28;26.83;;;11.40;;
70814;SDS011;58428;49.478;10.986;2022-11-20T02:58:54;24.05;;;10.93;;
70814;SDS011;58428;49.478;10.986;2022-11-20T03:01:19;25.90;;;11.02;;
70814;SDS011;58428;49.478;10.986;2022-11-20T03:06:13;27.23;;;11.68;;
70814;SDS011;58428;49.478;10.986;2022-11-20T03:08:41;23.95;;;11.07;;
70814;SDS011;58428;49.478;10.986;2022-11-20T03:11:07;23.60;;;11.38;;
70814;SDS011;58428;49.478;10.986;2022-11-20T03:13:33;26.85;;;12.02;;
70814;SDS011;58428;49.478;10.986;2022-11-20T03:16:06;24.17;;;10.82;;
70814;SDS011;58428;49.478;10.986;2022-11-20T03:18:38;28.27;;;11.88;;
70814;SDS011;58428;49.478;10.986;2022-11-20T03:21:04;24.83;;;11.30;;
70814;SDS011;58428;49.478;10.986;2022-11-20T03:23:30;27.20;;;12.25;;
70814;SDS011;58428;49.478;10.986;2022-11-20T03:26:06;24.42;;;11.07;;
70814;SDS011;58428;49.478;10.986;2022-11-20T03:28:42;23.42;;;10.63;;
70814;SDS011;58428;49.478;10.986;2022-11-20T03:31:12;26.15;;;11.55;;
70814;SDS011;58428;49.478;10.986;2022-11-20T03:33:40;22.98;;;10.23;;
70814;SDS011;58428;49.478;10.986;2022-11-20T03:36:10;26.08;;;11.65;;
70814;SDS011;58428;49.478;10.986;2022-11-20T03:38:37;25.90;;;11.65;;
70814;SDS011;58428;49.478;10.986;2022-11-20T03:41:04;25.05;;;10.20;;
70814;SDS011;58428;49.478;10.986;2022-11-20T03:43:35;25.13;;;10.85;;
70814;SDS011;58428;49.478;10.986;2022-11-20T03:46:04;23.88;;;10.50;;
70814;SDS011;58428;49.478;10.986;2022-11-20T03:48:31;25.15;;;11.48;;
70814;SDS011;58428;49.478;10.986;2022-11-20T03:51:13;23.85;;;10.43;;
70814;SDS011;58428;49.478;10.986;2022-11-20T03:53:41;24.65;;;11.18;;
70814;SDS011;58428;49.478;10.986;2022-11-20T03:56:08;24.27;;;11.18;;
70814;SDS011;58428;49.478;10.986;2022-11-20T03:58:35;26.00;;;12.07;;
70814;SDS011;58428;49.478;10.986;2022-11-20T04:01:07;28.40;;;11.15;;
70814;SDS011;58428;49.478;10.986;2022-11-20T04:03:35;23.70;;;11.27;;
70814;SDS011;58428;49.478;10.986;2022-11-20T04:06:05;28.02;;;11.25;;
70814;SDS011;58428;49.478;10.986;2022-11-20T04:08:33;27.05;;;11.98;;
70814;SDS011;58428;49.478;10.986;2022-11-20T04:11:12;24.55;;;11.38;;
70814;SDS011;58428;49.478;10.986;2022-11-20T04:13:41;28.25;;;10.65;;
70814;SDS011;58428;49.478;10.986;2022-11-20T04:16:10;23.90;;;10.15;;
70814;SDS011;58428;49.478;10.986;2022-11-20T04:18:37;27.00;;;12.25;;
70814;SDS011;58428;49.478;10.986;2022-11-20T04:21:03;22.17;;;10.75;;
70814;SDS011;58428;49.478;10.986;2022-11-20T04:23:30;25.85;;;11.43;;
70814;SDS011;58428;49.478;10.986;2022-11-20T04:26:01;23.40;;;10.65;;
70814;SDS011;58428;49.478;10.986;2022-11-20T04:28:31;24.20;;;10.43;;
70814;SDS011;58428;49.478;10.986;2022-11-20T04:31:15;22.20;;;10.40;;
70814;SDS011;58428;49.478;10.986;2022-11-20T04:33:43;23.33;;;10.20;;
70814;SDS011;58428;49.478;10.986;2022-11-20T04:36:16;22.15;;;10.18;;
70814;SDS011;58428;49.478;10.986;2022-11-20T04:38:46;21.92;;;9.63;;
70814;SDS011;58428;49.478;10.986;2022-11-20T04:41:16;21.95;;;10.13;;
70814;SDS011;58428;49.478;10.986;2022-11-20T04:43:47;21.05;;;8.57;;
70814;SDS011;58428;49.478;10.986;2022-11-20T04:46:15;22.45;;;10.13;;
70814;SDS011;58428;49.478;10.986;2022-11-20T04:48:41;22.92;;;10.32;;
70814;SDS011;58428;49.478;10.986;2022-11-20T04:51:08;24.63;;;10.80;;
70814;SDS011;58428;49.478;10.986;2022-11-20T04:53:34;22.77;;;9.45;;
70814;SDS011;58428;49.478;10.986;2022-11-20T04:56:00;23.30;;;9.38;;
70814;SDS011;58428;49.478;10.986;2022-11-20T04:58:28;26.38;;;10.50;;
70814;SDS011;58428;49.478;10.986;2022-11-20T05:01:00;24.52;;;11.48;;
70814;SDS011;58428;49.478;10.986;2022-11-20T05:03:27;26.30;;;10.77;;
70814;SDS011;58428;49.478;10.986;2022-11-20T05:05:53;23.02;;;9.90;;
70814;SDS011;58428;49.478;10.986;2022-11-20T05:08:18;24.48;;;11.38;;
70814;SDS011;58428;49.478;10.986;2022-11-20T05:10:43;23.75;;;10.85;;
70814;SDS011;58428;49.478;10.986;2022-11-20T05:13:09;24.20;;;10.30;;
70814;SDS011;58428;49.478;10.986;2022-11-20T05:15:34;22.98;;;9.90;;
70814;SDS011;58428;49.478;10.986;2022-11-20T05:18:00;24.80;;;10.50;;
70814;SDS011;58428;49.478;10.986;2022-11-20T05:20:26;24.38;;;11.07;;
70814;SDS011;58428;49.478;10.986;2022-11-20T05:22:51;24.45;;;10.50;;
70814;SDS011;58428;49.478;10.986;2022-11-20T05:25:16;25.27;;;10.38;;
70814;SDS011;58428;49.478;10.986;2022-11-20T05:27:43;23.73;;;9.93;;
70814;SDS011;58428;49.478;10.986;2022-11-20T05:30:09;23.50;;;10.48;;
70814;SDS011;58428;49.478;10.986;2022-11-20T05:32:34;22.95;;;10.25;;
70814;SDS011;58428;49.478;10.986;2022-11-20T05:35:01;23.27;;;10.07;;
70814;SDS011;58428;49.478;10.986;2022-11-20T05:37:29;26.77;;;11.27;;
70814;SDS011;58428;49.478;10.986;2022-11-20T05:39:56;23.88;;;11.00;;
70814;SDS011;58428;49.478;10.986;2022-11-20T05:42:21;23.42;;;10.38;;
70814;SDS011;58428;49.478;10.986;2022-11-20T05:44:56;22.48;;;10.30;;
70814;SDS011;58428;49.478;10.986;2022-11-20T05:47:27;20.58;;;9.75;;
70814;SDS011;58428;49.478;10.986;2022-11-20T05:49:57;24.58;;;10.35;;
70814;SDS011;58428;49.478;10.986;2022-11-20T05:52:22;22.83;;;10.85;;
70814;SDS011;58428;49.478;10.986;2022-11-20T05:54:48;23.48;;;9.95;;
70814;SDS011;58428;49.478;10.986;2022-11-20T05:57:13;25.25;;;10.02;;
70814;SDS011;58428;49.478;10.986;2022-11-20T05:59:39;24.83;;;11.60;;
70814;SDS011;58428;49.478;10.986;2022-11-20T06:02:05;24.67;;;10.27;;
70814;SDS011;58428;49.478;10.986;2022-11-20T06:04:30;21.98;;;10.20;;
70814;SDS011;58428;49.478;10.986;2022-11-20T06:06:56;23.10;;;10.32;;
70814;SDS011;58428;49.478;10.986;2022-11-20T06:09:22;26.23;;;11.27;;
70814;SDS011;58428;49.478;10.986;2022-11-20T06:11:47;25.33;;;11.30;;
70814;SDS011;58428;49.478;10.986;2022-11-20T06:14:13;25.17;;;10.00;;
70814;SDS011;58428;49.478;10.986;2022-11-20T06:19:04;21.33;;;10.05;;
70814;SDS011;58428;49.478;10.986;2022-11-20T06:21:30;25.35;;;10.27;;
70814;SDS011;58428;49.478;10.986;2022-11-20T06:23:55;26.00;;;12.15;;
70814;SDS011;58428;49.478;10.986;2022-11-20T06:26:22;24.73;;;9.63;;
70814;SDS011;58428;49.478;10.986;2022-11-20T06:28:50;22.77;;;9.90;;
70814;SDS011;58428;49.478;10.986;2022-11-20T06:31:20;23.92;;;10.07;;
70814;SDS011;58428;49.478;10.986;2022-11-20T06:33:47;24.65;;;10.52;;
70814;SDS011;58428;49.478;10.986;2022-11-20T06:36:14;23.52;;;10.02;;
70814;SDS011;58428;49.478;10.986;2022-11-20T06:38:42;23.23;;;10.07;;
70814;SDS011;58428;49.478;10.986;2022-11-20T06:41:12;23.40;;;11.52;;
70814;SDS011;58428;49.478;10.986;2022-11-20T06:43:39;24.83;;;11.05;;
70814;SDS011;58428;49.478;10.986;2022-11-20T06:46:04;27.33;;;11.00;;
70814;SDS011;58428;49.478;10.986;2022-11-20T06:48:32;25.88;;;11.43;;
70814;SDS011;58428;49.478;10.986;2022-11-20T06:50:58;24.27;;;10.02;;
70814;SDS011;58428;49.478;10.986;2022-11-20T06:53:24;27.58;;;11.30;;
70814;SDS011;58428;49.478;10.986;2022-11-20T06:55:50;29.38;;;12.07;;
70814;SDS011;58428;49.478;10.986;2022-11-20T06:58:17;25.33;;;11.35;;
70814;SDS011;58428;49.478;10.986;2022-11-20T07:00:43;24.15;;;10.23;;
70814;SDS011;58428;49.478;10.986;2022-11-20T07:03:10;29.45;;;12.27;;
70814;SDS011;58428;49.478;10.986;2022-11-20T07:05:37;30.55;;;12.43;;
70814;SDS011;58428;49.478;10.986;2022-11-20T07:08:03;26.80;;;10.90;;
70814;SDS011;58428;49.478;10.986;2022-11-20T07:10:30;23.10;;;10.52;;
70814;SDS011;58428;49.478;10.986;2022-11-20T07:12:55;23.38;;;9.82;;
70814;SDS011;58428;49.478;10.986;2022-11-20T07:15:21;25.50;;;10.73;;
70814;SDS011;58428;49.478;10.986;2022-11-20T07:17:48;22.25;;;9.45;;
70814;SDS011;58428;49.478;10.986;2022-11-20T07:20:14;23.38;;;10.50;;
70814;SDS011;58428;49.478;10.986;2022-11-20T07:22:40;21.70;;;9.90;;
70814;SDS011;58428;49.478;10.986;2022-11-20T07:25:07;20.50;;;9.20;;
70814;SDS011;58428;49.478;10.986;2022-11-20T07:27:35;21.40;;;9.73;;
70814;SDS011;58428;49.478;10.986;2022-11-20T07:30:02;19.95;;;9.38;;
70814;SDS011;58428;49.478;10.986;2022-11-20T07:32:30;22.98;;;9.43;;
70814;SDS011;58428;49.478;10.986;2022-11-20T07:34:55;20.95;;;9.25;;
70814;SDS011;58428;49.478;10.986;2022-11-20T07:37:21;46.08;;;12.45;;
70814;SDS011;58428;49.478;10.986;2022-11-20T07:39:46;24.15;;;10.35;;
70814;SDS011;58428;49.478;10.986;2022-11-20T07:42:13;23.15;;;9.80;;
70814;SDS011;58428;49.478;10.986;2022-11-20T07:44:39;20.63;;;10.40;;
70814;SDS011;58428;49.478;10.986;2022-11-20T07:47:04;22.75;;;9.75;;
70814;SDS011;58428;49.478;10.986;2022-11-20T07:49:30;22.83;;;9.93;;
70814;SDS011;58428;49.478;10.986;2022-11-20T07:51:56;24.70;;;10.90;;
70814;SDS011;58428;49.478;10.986;2022-11-20T07:54:22;19.30;;;9.32;;
70814;SDS011;58428;49.478;10.986;2022-11-20T07:56:50;25.00;;;10.95;;
70814;SDS011;58428;49.478;10.986;2022-11-20T07:59:16;23.52;;;9.55;;
70814;SDS011;58428;49.478;10.986;2022-11-20T08:01:41;23.13;;;10.65;;
70814;SDS011;58428;49.478;10.986;2022-11-20T08:04:09;24.48;;;10.38;;
70814;SDS011;58428;49.478;10.986;2022-11-20T08:06:36;23.17;;;9.75;;
70814;SDS011;58428;49.478;10.986;2022-11-20T08:09:02;22.13;;;9.98;;
70814;SDS011;58428;49.478;10.986;2022-11-20T08:11:28;24.17;;;10.63;;
70814;SDS011;58428;49.478;10.986;2022-11-20T08:14:12;22.67;;;10.02;;
70814;SDS011;58428;49.478;10.986;2022-11-20T08:16:38;24.30;;;10.30;;
70814;SDS011;58428;49.478;10.986;2022-11-20T08:19:05;26.60;;;11.85;;
70814;SDS011;58428;49.478;10.986;2022-11-20T08:21:30;24.30;;;10.63;;
70814;SDS011;58428;49.478;10.986;2022-11-20T08:23:57;21.38;;;9.93;;
70814;SDS011;58428;49.478;10.986;2022-11-20T08:26:23;25.75;;;11.43;;
70814;SDS011;58428;49.478;10.986;2022-11-20T08:28:52;21.92;;;10.10;;
70814;SDS011;58428;49.478;10.986;2022-11-20T08:31:19;26.08;;;12.30;;
70814;SDS011;58428;49.478;10.986;2022-11-20T08:33:44;23.85;;;11.07;;
70814;SDS011;58428;49.478;10.986;2022-11-20T08:36:10;25.27;;;11.60;;
70814;SDS011;58428;49.478;10.986;2022-11-20T08:38:36;25.15;;;11.95;;
70814;SDS011;58428;49.478;10.986;2022-11-20T08:41:03;24.50;;;12.00;;
70814;SDS011;58428;49.478;10.986;2022-11-20T08:43:52;24.23;;;11.35;;
70814;SDS011;58428;49.478;10.986;2022-11-20T08:46:20;26.25;;;11.02;;
70814;SDS011;58428;49.478;10.986;2022-11-20T08:48:46;24.98;;;10.85;;
70814;SDS011;58428;49.478;10.986;2022-11-20T08:51:11;25.48;;;11.88;;
70814;SDS011;58428;49.478;10.986;2022-11-20T08:53:39;21.40;;;10.52;;
70814;SDS011;58428;49.478;10.986;2022-11-20T08:56:04;24.50;;;11.60;;
70814;SDS011;58428;49.478;10.986;2022-11-20T08:58:30;21.35;;;10.88;;
70814;SDS011;58428;49.478;10.986;2022-11-20T09:00:56;24.02;;;11.75;;
70814;SDS011;58428;49.478;10.986;2022-11-20T09:03:23;23.45;;;10.02;;
70814;SDS011;58428;49.478;10.986;2022-11-20T09:05:48;24.77;;;11.10;;
70814;SDS011;58428;49.478;10.986;2022-11-20T09:08:14;26.92;;;12.43;;
70814;SDS011;58428;49.478;10.986;2022-11-20T09:10:39;23.63;;;10.90;;
70814;SDS011;58428;49.478;10.986;2022-11-20T09:13:04;25.75;;;11.50;;
70814;SDS011;58428;49.478;10.986;2022-11-20T09:15:31;19.85;;;9.20;;
70814;SDS011;58428;49.478;10.986;2022-11-20T09:18:01;22.08;;;10.43;;
70814;SDS011;58428;49.478;10.986;2022-11-20T09:20:28;21.13;;;10.93;;
70814;SDS011;58428;49.478;10.986;2022-11-20T09:22:56;21.02;;;10.25;;
70814;SDS011;58428;49.478;10.986;2022-11-20T09:27:47;22.20;;;11.60;;
70814;SDS011;58428;49.478;10.986;2022-11-20T09:30:14;25.13;;;11.00;;
70814;SDS011;58428;49.478;10.986;2022-11-20T09:32:40;22.23;;;10.23;;
70814;SDS011;58428;49.478;10.986;2022-11-20T09:35:06;19.13;;;9.63;;
70814;SDS011;58428;49.478;10.986;2022-11-20T09:37:34;22.40;;;10.45;;
70814;SDS011;58428;49.478;10.986;2022-11-20T09:39:59;20.52;;;10.02;;
70814;SDS011;58428;49.478;10.986;2022-11-20T09:51:40;21.92;;;9.70;;
70814;SDS011;58428;49.478;10.986;2022-11-20T09:54:37;22.35;;;10.57;;
70814;SDS011;58428;49.478;10.986;2022-11-20T09:57:09;21.40;;;10.60;;
70814;SDS011;58428;49.478;10.986;2022-11-20T09:59:52;21.83;;;10.15;;
70814;SDS011;58428;49.478;10.986;2022-11-20T10:02:27;24.23;;;11.10;;
70814;SDS011;58428;49.478;10.986;2022-11-20T10:05:02;21.75;;;10.30;;
70814;SDS011;58428;49.478;10.986;2022-11-20T10:07:36;21.73;;;10.20;;
70814;SDS011;58428;49.478;10.986;2022-11-20T10:10:14;23.35;;;10.43;;
70814;SDS011;58428;49.478;10.986;2022-11-20T10:24:05;21.02;;;10.82;;
70814;SDS011;58428;49.478;10.986;2022-11-20T10:29:46;22.75;;;11.20;;
70814;SDS011;58428;49.478;10.986;2022-11-20T10:32:16;24.58;;;12.10;;
70814;SDS011;58428;49.478;10.986;2022-11-20T10:37:29;22.83;;;12.20;;
70814;SDS011;58428;49.478;10.986;2022-11-20T10:42:47;25.23;;;13.80;;
70814;SDS011;58428;49.478;10.986;2022-11-20T10:45:22;30.40;;;14.75;;
70814;SDS011;58428;49.478;10.986;2022-11-20T10:48:10;28.42;;;14.38;;
70814;SDS011;58428;49.478;10.986;2022-11-20T10:51:14;28.90;;;15.15;;
70814;SDS011;58428;49.478;10.986;2022-11-20T10:54:05;29.73;;;15.23;;
70814;SDS011;58428;49.478;10.986;2022-11-20T10:56:38;29.10;;;15.45;;
70814;SDS011;58428;49.478;10.986;2022-11-20T11:01:50;29.35;;;14.18;;
70814;SDS011;58428;49.478;10.986;2022-11-20T11:09:58;27.70;;;13.18;;
70814;SDS011;58428;49.478;10.986;2022-11-20T11:12:24;27.15;;;13.35;;
70814;SDS011;58428;49.478;10.986;2022-11-20T11:14:53;26.85;;;13.35;;
70814;SDS011;58428;49.478;10.986;2022-11-20T11:17:23;27.45;;;13.15;;
70814;SDS011;58428;49.478;10.986;2022-11-20T11:22:55;27.65;;;13.18;;
70814;SDS011;58428;49.478;10.986;2022-11-20T11:27:51;26.85;;;12.20;;
70814;SDS011;58428;49.478;10.986;2022-11-20T11:30:18;25.25;;;13.13;;
70814;SDS011;58428;49.478;10.986;2022-11-20T11:32:45;24.00;;;11.57;;
70814;SDS011;58428;49.478;10.986;2022-11-20T11:35:21;23.27;;;11.50;;
70814;SDS011;58428;49.478;10.986;2022-11-20T11:37:54;21.80;;;9.80;;
70814;SDS011;58428;49.478;10.986;2022-11-20T11:40:39;21.65;;;10.43;;
70814;SDS011;58428;49.478;10.986;2022-11-20T11:43:18;23.40;;;10.93;;
70814;SDS011;58428;49.478;10.986;2022-11-20T11:46:09;20.35;;;10.18;;
70814;SDS011;58428;49.478;10.986;2022-11-20T11:48:58;19.55;;;9.98;;
70814;SDS011;58428;49.478;10.986;2022-11-20T11:51:29;19.95;;;10.48;;
70814;SDS011;58428;49.478;10.986;2022-11-20T11:54:03;18.42;;;9.52;;
70814;SDS011;58428;49.478;10.986;2022-11-20T11:56:38;18.25;;;9.45;;
70814;SDS011;58428;49.478;10.986;2022-11-20T11:59:09;19.00;;;9.57;;
70814;SDS011;58428;49.478;10.986;2022-11-20T12:01:53;20.88;;;10.40;;
70814;SDS011;58428;49.478;10.986;2022-11-20T12:07:44;22.17;;;11.40;;
70814;SDS011;58428;49.478;10.986;2022-11-20T12:10:19;20.38;;;10.77;;
70814;SDS011;58428;49.478;10.986;2022-11-20T12:13:14;20.52;;;10.27;;
70814;SDS011;58428;49.478;10.986;2022-11-20T12:15:42;17.58;;;9.55;;
70814;SDS011;58428;49.478;10.986;2022-11-20T12:18:14;19.88;;;11.38;;
70814;SDS011;58428;49.478;10.986;2022-11-20T12:20:45;17.65;;;9.52;;
70814;SDS011;58428;49.478;10.986;2022-11-20T12:24:22;20.63;;;10.27;;
70814;SDS011;58428;49.478;10.986;2022-11-20T12:26:35;17.88;;;9.73;;
70814;SDS011;58428;49.478;10.986;2022-11-20T12:38:00;15.65;;;7.95;;
70814;SDS011;58428;49.478;10.986;2022-11-20T12:46:47;15.18;;;7.28;;
70814;SDS011;58428;49.478;10.986;2022-11-20T12:54:58;14.25;;;7.07;;
70814;SDS011;58428;49.478;10.986;2022-11-20T12:57:49;14.07;;;7.35;;
70814;SDS011;58428;49.478;10.986;2022-11-20T13:00:22;13.82;;;7.60;;
70814;SDS011;58428;49.478;10.986;2022-11-20T13:08:53;12.05;;;6.57;;
70814;SDS011;58428;49.478;10.986;2022-11-20T13:14:24;13.27;;;6.93;;
70814;SDS011;58428;49.478;10.986;2022-11-20T13:19:51;13.80;;;7.75;;
70814;SDS011;58428;49.478;10.986;2022-11-20T13:22:31;16.55;;;8.30;;
70814;SDS011;58428;49.478;10.986;2022-11-20T13:25:31;13.52;;;6.45;;
70814;SDS011;58428;49.478;10.986;2022-11-20T13:27:59;13.55;;;6.95;;
70814;SDS011;58428;49.478;10.986;2022-11-20T13:30:28;12.52;;;6.35;;
70814;SDS011;58428;49.478;10.986;2022-11-20T13:32:58;12.32;;;6.80;;
70814;SDS011;58428;49.478;10.986;2022-11-20T13:35:36;11.65;;;6.25;;
70814;SDS011;58428;49.478;10.986;2022-11-20T13:40:33;14.52;;;7.13;;
70814;SDS011;58428;49.478;10.986;2022-11-20T13:43:07;12.80;;;6.43;;
70814;SDS011;58428;49.478;10.986;2022-11-20T13:45:41;12.85;;;7.07;;
70814;SDS011;58428;49.478;10.986;2022-11-20T13:59:57;13.02;;;6.50;;
70814;SDS011;58428;49.478;10.986;2022-11-20T14:02:40;13.77;;;7.35;;
70814;SDS011;58428;49.478;10.986;2022-11-20T14:07:41;15.25;;;7.03;;
70814;SDS011;58428;49.478;10.986;2022-11-20T14:10:19;16.25;;;7.35;;
70814;SDS011;58428;49.478;10.986;2022-11-20T14:12:46;16.58;;;6.72;;
70814;SDS011;58428;49.478;10.986;2022-11-20T14:15:24;14.80;;;6.57;;
70814;SDS011;58428;49.478;10.986;2022-11-20T14:17:57;14.23;;;7.90;;
70814;SDS011;58428;49.478;10.986;2022-11-20T14:20:26;12.82;;;6.93;;
70814;SDS011;58428;49.478;10.986;2022-11-20T14:22:56;13.57;;;7.70;;
70814;SDS011;58428;49.478;10.986;2022-11-20T14:25:25;13.70;;;6.88;;
70814;SDS011;58428;49.478;10.986;2022-11-20T14:27:59;12.35;;;6.95;;
70814;SDS011;58428;49.478;10.986;2022-11-20T14:30:26;14.60;;;7.28;;
70814;SDS011;58428;49.478;10.986;2022-11-20T14:32:53;13.95;;;8.02;;
70814;SDS011;58428;49.478;10.986;2022-11-20T14:35:23;16.02;;;7.70;;
70814;SDS011;58428;49.478;10.986;2022-11-20T14:37:50;13.95;;;7.85;;
70814;SDS011;58428;49.478;10.986;2022-11-20T14:40:23;13.07;;;6.53;;
70814;SDS011;58428;49.478;10.986;2022-11-20T14:42:52;14.20;;;7.03;;
70814;SDS011;58428;49.478;10.986;2022-11-20T14:45:18;14.00;;;6.90;;
70814;SDS011;58428;49.478;10.986;2022-11-20T14:50:22;11.95;;;6.35;;
70814;SDS011;58428;49.478;10.986;2022-11-20T14:52:52;12.00;;;5.72;;
70814;SDS011;58428;49.478;10.986;2022-11-20T14:57:55;13.98;;;7.60;;
70814;SDS011;58428;49.478;10.986;2022-11-20T15:00:22;11.98;;;6.38;;
70814;SDS011;58428;49.478;10.986;2022-11-20T15:02:49;10.25;;;5.38;;
70814;SDS011;58428;49.478;10.986;2022-11-20T15:05:17;11.38;;;5.95;;
70814;SDS011;58428;49.478;10.986;2022-11-20T15:07:45;14.30;;;7.40;;
70814;SDS011;58428;49.478;10.986;2022-11-20T15:12:54;14.25;;;7.13;;
70814;SDS011;58428;49.478;10.986;2022-11-20T15:15:28;14.65;;;7.55;;
70814;SDS011;58428;49.478;10.986;2022-11-20T15:17:58;14.30;;;7.43;;
70814;SDS011;58428;49.478;10.986;2022-11-20T15:20:27;12.13;;;6.80;;
70814;SDS011;58428;49.478;10.986;2022-11-20T15:22:56;12.52;;;6.57;;
70814;SDS011;58428;49.478;10.986;2022-11-20T15:25:21;15.77;;;7.72;;
70814;SDS011;58428;49.478;10.986;2022-11-20T15:27:52;13.15;;;7.13;;
70814;SDS011;58428;49.478;10.986;2022-11-20T15:30:24;14.15;;;7.80;;
70814;SDS011;58428;49.478;10.986;2022-11-20T15:32:50;12.10;;;7.00;;
70814;SDS011;58428;49.478;10.986;2022-11-20T15:35:15;15.77;;;7.53;;
70814;SDS011;58428;49.478;10.986;2022-11-20T15:37:41;14.32;;;7.15;;
70814;SDS011;58428;49.478;10.986;2022-11-20T15:40:07;51.92;;;17.85;;
70814;SDS011;58428;49.478;10.986;2022-11-20T15:42:36;17.48;;;9.55;;
70814;SDS011;58428;49.478;10.986;2022-11-20T15:45:24;19.90;;;10.60;;
70814;SDS011;58428;49.478;10.986;2022-11-20T15:47:50;17.30;;;8.73;;
70814;SDS011;58428;49.478;10.986;2022-11-20T15:50:16;13.40;;;7.35;;
70814;SDS011;58428;49.478;10.986;2022-11-20T15:52:43;17.30;;;8.02;;
70814;SDS011;58428;49.478;10.986;2022-11-20T15:55:10;17.35;;;10.00;;
70814;SDS011;58428;49.478;10.986;2022-11-20T15:57:39;16.38;;;8.73;;
70814;SDS011;58428;49.478;10.986;2022-11-20T16:02:37;15.90;;;8.75;;
70814;SDS011;58428;49.478;10.986;2022-11-20T16:05:03;18.10;;;9.90;;
70814;SDS011;58428;49.478;10.986;2022-11-20T16:07:28;17.15;;;9.52;;
70814;SDS011;58428;49.478;10.986;2022-11-20T16:09:54;18.38;;;10.20;;
70814;SDS011;58428;49.478;10.986;2022-11-20T16:12:21;21.40;;;10.73;;
70814;SDS011;58428;49.478;10.986;2022-11-20T16:15:05;18.67;;;9.02;;
70814;SDS011;58428;49.478;10.986;2022-11-20T16:17:53;16.48;;;8.25;;
70814;SDS011;58428;49.478;10.986;2022-11-20T16:20:18;12.98;;;7.57;;
70814;SDS011;58428;49.478;10.986;2022-11-20T16:22:44;17.05;;;8.70;;
70814;SDS011;58428;49.478;10.986;2022-11-20T16:25:09;15.23;;;7.90;;
70814;SDS011;58428;49.478;10.986;2022-11-20T16:27:35;14.45;;;8.00;;
70814;SDS011;58428;49.478;10.986;2022-11-20T16:30:00;14.80;;;8.10;;
70814;SDS011;58428;49.478;10.986;2022-11-20T16:32:25;15.13;;;8.45;;
70814;SDS011;58428;49.478;10.986;2022-11-20T16:34:52;16.70;;;8.82;;
70814;SDS011;58428;49.478;10.986;2022-11-20T16:37:17;26.17;;;13.35;;